sensor_id;sensor_type;location;lat;lon;timestamp;P1;durP1;ratioP1;P2;durP2;ratioP2
71965;SDS011;59836;52.132;5.442;2023-02-28T00:00:23;3.58;;;1.70;;
71965;SDS011;59836;52.132;5.442;2023-02-28T00:02:50;5.53;;;2.03;;
71965;SDS011;59836;52.132;5.442;2023-02-28T00:05:17;4.90;;;1.90;;
71965;SDS011;59836;52.132;5.442;2023-02-28T00:07:46;4.63;;;1.85;;
71965;SDS011;59836;52.132;5.442;2023-02-28T00:10:13;3.47;;;2.00;;
71965;SDS011;59836;52.132;5.442;2023-02-28T00:12:42;4.63;;;1.90;;
71965;SDS011;59836;52.132;5.442;2023-02-28T00:15:09;2.93;;;1.80;;
71965;SDS011;59836;52.132;5.442;2023-02-28T00:17:36;2.75;;;1.33;;
71965;SDS011;59836;52.132;5.442;2023-02-28T00:20:04;3.78;;;2.03;;
71965;SDS011;59836;52.132;5.442;2023-02-28T00:22:36;3.33;;;2.20;;
71965;SDS011;59836;52.132;5.442;2023-02-28T00:25:08;4.57;;;1.95;;
71965;SDS011;59836;52.132;5.442;2023-02-28T00:27:36;3.53;;;1.47;;
71965;SDS011;59836;52.132;5.442;2023-02-28T00:30:03;4.32;;;1.77;;
71965;SDS011;59836;52.132;5.442;2023-02-28T00:32:31;5.03;;;2.10;;
71965;SDS011;59836;52.132;5.442;2023-02-28T00:34:57;4.20;;;2.22;;
71965;SDS011;59836;52.132;5.442;2023-02-28T00:37:23;4.50;;;2.00;;
71965;SDS011;59836;52.132;5.442;2023-02-28T00:39:50;2.57;;;1.63;;
71965;SDS011;59836;52.132;5.442;2023-02-28T00:42:16;4.97;;;1.90;;
71965;SDS011;59836;52.132;5.442;2023-02-28T00:44:43;3.63;;;2.35;;
71965;SDS011;59836;52.132;5.442;2023-02-28T00:47:09;5.93;;;1.98;;
71965;SDS011;59836;52.132;5.442;2023-02-28T00:49:36;3.75;;;2.17;;
71965;SDS011;59836;52.132;5.442;2023-02-28T00:52:02;7.07;;;1.80;;
71965;SDS011;59836;52.132;5.442;2023-02-28T00:54:29;4.55;;;2.10;;
71965;SDS011;59836;52.132;5.442;2023-02-28T00:56:55;6.55;;;2.10;;
71965;SDS011;59836;52.132;5.442;2023-02-28T00:59:22;3.58;;;1.83;;
71965;SDS011;59836;52.132;5.442;2023-02-28T01:01:48;3.13;;;1.75;;
71965;SDS011;59836;52.132;5.442;2023-02-28T01:04:15;3.87;;;1.53;;
71965;SDS011;59836;52.132;5.442;2023-02-28T01:06:42;3.38;;;1.52;;
71965;SDS011;59836;52.132;5.442;2023-02-28T01:09:09;4.22;;;1.88;;
71965;SDS011;59836;52.132;5.442;2023-02-28T01:11:36;7.50;;;1.70;;
71965;SDS011;59836;52.132;5.442;2023-02-28T01:14:03;3.50;;;2.05;;
71965;SDS011;59836;52.132;5.442;2023-02-28T01:16:30;3.50;;;1.50;;
71965;SDS011;59836;52.132;5.442;2023-02-28T01:18:57;2.67;;;1.45;;
71965;SDS011;59836;52.132;5.442;2023-02-28T01:21:23;3.17;;;1.60;;
71965;SDS011;59836;52.132;5.442;2023-02-28T01:23:50;5.45;;;1.60;;
71965;SDS011;59836;52.132;5.442;2023-02-28T01:26:18;3.38;;;1.50;;
71965;SDS011;59836;52.132;5.442;2023-02-28T01:28:49;5.53;;;1.73;;
71965;SDS011;59836;52.132;5.442;2023-02-28T01:31:17;3.47;;;1.35;;
71965;SDS011;59836;52.132;5.442;2023-02-28T01:33:45;4.13;;;1.85;;
71965;SDS011;59836;52.132;5.442;2023-02-28T01:36:13;2.83;;;1.27;;
71965;SDS011;59836;52.132;5.442;2023-02-28T01:38:41;3.40;;;1.77;;
71965;SDS011;59836;52.132;5.442;2023-02-28T01:41:09;4.43;;;2.13;;
71965;SDS011;59836;52.132;5.442;2023-02-28T01:46:11;6.20;;;1.90;;
71965;SDS011;59836;52.132;5.442;2023-02-28T01:48:42;4.07;;;1.75;;
71965;SDS011;59836;52.132;5.442;2023-02-28T01:51:14;3.75;;;1.83;;
71965;SDS011;59836;52.132;5.442;2023-02-28T01:53:49;4.33;;;1.60;;
71965;SDS011;59836;52.132;5.442;2023-02-28T01:56:20;9.10;;;1.88;;
71965;SDS011;59836;52.132;5.442;2023-02-28T01:58:53;3.95;;;1.95;;
71965;SDS011;59836;52.132;5.442;2023-02-28T02:01:21;3.88;;;1.52;;
71965;SDS011;59836;52.132;5.442;2023-02-28T02:03:50;3.97;;;1.60;;
71965;SDS011;59836;52.132;5.442;2023-02-28T02:06:24;3.30;;;1.87;;
71965;SDS011;59836;52.132;5.442;2023-02-28T02:08:57;5.13;;;2.33;;
71965;SDS011;59836;52.132;5.442;2023-02-28T02:11:23;3.15;;;1.98;;
71965;SDS011;59836;52.132;5.442;2023-02-28T02:17:02;5.10;;;1.83;;
71965;SDS011;59836;52.132;5.442;2023-02-28T02:31:00;3.65;;;1.92;;
71965;SDS011;59836;52.132;5.442;2023-02-28T02:36:38;4.88;;;1.60;;
71965;SDS011;59836;52.132;5.442;2023-02-28T02:41:58;3.22;;;1.52;;
71965;SDS011;59836;52.132;5.442;2023-02-28T02:44:29;5.20;;;1.90;;
71965;SDS011;59836;52.132;5.442;2023-02-28T02:47:09;3.17;;;1.73;;
71965;SDS011;59836;52.132;5.442;2023-02-28T02:49:38;3.38;;;1.67;;
71965;SDS011;59836;52.132;5.442;2023-02-28T02:52:08;3.90;;;2.13;;
71965;SDS011;59836;52.132;5.442;2023-02-28T02:54:40;3.13;;;1.73;;
71965;SDS011;59836;52.132;5.442;2023-02-28T02:57:11;3.47;;;1.63;;
71965;SDS011;59836;52.132;5.442;2023-02-28T02:59:41;2.80;;;1.50;;
71965;SDS011;59836;52.132;5.442;2023-02-28T03:02:11;4.82;;;1.77;;
71965;SDS011;59836;52.132;5.442;2023-02-28T03:04:40;4.38;;;2.30;;
71965;SDS011;59836;52.132;5.442;2023-02-28T03:07:11;5.72;;;1.70;;
71965;SDS011;59836;52.132;5.442;2023-02-28T03:09:37;4.18;;;1.98;;
71965;SDS011;59836;52.132;5.442;2023-02-28T03:12:04;5.13;;;1.73;;
71965;SDS011;59836;52.132;5.442;2023-02-28T03:17:23;6.07;;;2.42;;
71965;SDS011;59836;52.132;5.442;2023-02-28T03:20:27;4.72;;;2.08;;
71965;SDS011;59836;52.132;5.442;2023-02-28T03:25:34;4.30;;;1.77;;
71965;SDS011;59836;52.132;5.442;2023-02-28T03:28:26;3.78;;;1.65;;
71965;SDS011;59836;52.132;5.442;2023-02-28T03:31:10;4.40;;;1.75;;
71965;SDS011;59836;52.132;5.442;2023-02-28T03:33:47;4.43;;;2.05;;
71965;SDS011;59836;52.132;5.442;2023-02-28T03:36:28;5.88;;;2.47;;
71965;SDS011;59836;52.132;5.442;2023-02-28T03:39:00;7.60;;;2.73;;
71965;SDS011;59836;52.132;5.442;2023-02-28T03:41:31;5.43;;;2.22;;
71965;SDS011;59836;52.132;5.442;2023-02-28T03:44:13;5.78;;;2.30;;
71965;SDS011;59836;52.132;5.442;2023-02-28T03:46:46;5.00;;;2.03;;
71965;SDS011;59836;52.132;5.442;2023-02-28T03:49:20;4.68;;;2.03;;
71965;SDS011;59836;52.132;5.442;2023-02-28T03:51:50;3.90;;;1.83;;
71965;SDS011;59836;52.132;5.442;2023-02-28T03:54:25;5.85;;;2.20;;
71965;SDS011;59836;52.132;5.442;2023-02-28T03:57:10;4.05;;;1.90;;
71965;SDS011;59836;52.132;5.442;2023-02-28T03:59:44;4.32;;;2.10;;
71965;SDS011;59836;52.132;5.442;2023-02-28T04:02:20;3.95;;;1.73;;
71965;SDS011;59836;52.132;5.442;2023-02-28T04:04:49;3.80;;;1.63;;
71965;SDS011;59836;52.132;5.442;2023-02-28T04:07:16;4.68;;;2.15;;
71965;SDS011;59836;52.132;5.442;2023-02-28T04:09:43;3.95;;;2.03;;
71965;SDS011;59836;52.132;5.442;2023-02-28T04:12:10;4.45;;;1.80;;
71965;SDS011;59836;52.132;5.442;2023-02-28T04:14:36;4.05;;;1.75;;
71965;SDS011;59836;52.132;5.442;2023-02-28T04:17:03;5.00;;;1.50;;
71965;SDS011;59836;52.132;5.442;2023-02-28T04:19:29;7.35;;;1.40;;
71965;SDS011;59836;52.132;5.442;2023-02-28T04:21:56;1.95;;;1.40;;
71965;SDS011;59836;52.132;5.442;2023-02-28T04:24:23;2.63;;;1.27;;
71965;SDS011;59836;52.132;5.442;2023-02-28T04:26:52;2.80;;;1.58;;
71965;SDS011;59836;52.132;5.442;2023-02-28T04:29:22;3.37;;;1.40;;
71965;SDS011;59836;52.132;5.442;2023-02-28T04:31:50;3.70;;;1.15;;
71965;SDS011;59836;52.132;5.442;2023-02-28T04:34:16;2.55;;;1.77;;
71965;SDS011;59836;52.132;5.442;2023-02-28T04:36:45;3.45;;;1.92;;
71965;SDS011;59836;52.132;5.442;2023-02-28T04:39:12;3.30;;;1.30;;
71965;SDS011;59836;52.132;5.442;2023-02-28T04:41:38;2.10;;;1.37;;
71965;SDS011;59836;52.132;5.442;2023-02-28T04:44:04;3.38;;;1.33;;
71965;SDS011;59836;52.132;5.442;2023-02-28T04:46:31;2.85;;;1.85;;
71965;SDS011;59836;52.132;5.442;2023-02-28T04:48:57;3.85;;;1.50;;
71965;SDS011;59836;52.132;5.442;2023-02-28T04:51:25;2.85;;;1.58;;
71965;SDS011;59836;52.132;5.442;2023-02-28T04:53:51;2.67;;;1.30;;
71965;SDS011;59836;52.132;5.442;2023-02-28T04:56:18;3.63;;;1.95;;
71965;SDS011;59836;52.132;5.442;2023-02-28T04:58:44;2.20;;;1.48;;
71965;SDS011;59836;52.132;5.442;2023-02-28T05:01:18;3.08;;;1.45;;
71965;SDS011;59836;52.132;5.442;2023-02-28T05:03:54;3.45;;;1.52;;
71965;SDS011;59836;52.132;5.442;2023-02-28T05:06:22;2.63;;;1.03;;
71965;SDS011;59836;52.132;5.442;2023-02-28T05:08:51;3.78;;;1.30;;
71965;SDS011;59836;52.132;5.442;2023-02-28T05:11:21;2.13;;;1.65;;
71965;SDS011;59836;52.132;5.442;2023-02-28T05:13:50;3.13;;;1.33;;
71965;SDS011;59836;52.132;5.442;2023-02-28T05:16:17;2.50;;;1.50;;
71965;SDS011;59836;52.132;5.442;2023-02-28T05:18:44;2.00;;;1.47;;
71965;SDS011;59836;52.132;5.442;2023-02-28T05:21:30;3.90;;;1.50;;
71965;SDS011;59836;52.132;5.442;2023-02-28T05:23:59;2.90;;;1.60;;
71965;SDS011;59836;52.132;5.442;2023-02-28T05:26:27;3.05;;;1.20;;
71965;SDS011;59836;52.132;5.442;2023-02-28T05:28:54;2.90;;;1.10;;
71965;SDS011;59836;52.132;5.442;2023-02-28T05:31:20;2.23;;;1.23;;
71965;SDS011;59836;52.132;5.442;2023-02-28T05:33:48;2.72;;;1.50;;
71965;SDS011;59836;52.132;5.442;2023-02-28T05:36:14;3.35;;;2.10;;
71965;SDS011;59836;52.132;5.442;2023-02-28T05:38:41;3.60;;;1.50;;
71965;SDS011;59836;52.132;5.442;2023-02-28T05:41:08;3.42;;;1.40;;
71965;SDS011;59836;52.132;5.442;2023-02-28T05:43:35;2.37;;;1.30;;
71965;SDS011;59836;52.132;5.442;2023-02-28T05:46:04;2.85;;;1.33;;
71965;SDS011;59836;52.132;5.442;2023-02-28T05:48:32;2.40;;;1.73;;
71965;SDS011;59836;52.132;5.442;2023-02-28T05:51:00;3.08;;;1.33;;
71965;SDS011;59836;52.132;5.442;2023-02-28T05:53:26;2.72;;;1.50;;
71965;SDS011;59836;52.132;5.442;2023-02-28T05:55:53;2.90;;;1.50;;
71965;SDS011;59836;52.132;5.442;2023-02-28T05:58:19;2.08;;;1.35;;
71965;SDS011;59836;52.132;5.442;2023-02-28T06:00:46;3.10;;;1.60;;
71965;SDS011;59836;52.132;5.442;2023-02-28T06:03:13;2.95;;;1.90;;
71965;SDS011;59836;52.132;5.442;2023-02-28T06:05:40;5.28;;;1.70;;
71965;SDS011;59836;52.132;5.442;2023-02-28T06:08:06;3.47;;;1.67;;
71965;SDS011;59836;52.132;5.442;2023-02-28T06:10:33;2.88;;;1.95;;
71965;SDS011;59836;52.132;5.442;2023-02-28T06:13:01;3.83;;;1.90;;
71965;SDS011;59836;52.132;5.442;2023-02-28T06:15:29;3.70;;;1.50;;
71965;SDS011;59836;52.132;5.442;2023-02-28T06:17:55;3.55;;;1.75;;
71965;SDS011;59836;52.132;5.442;2023-02-28T06:20:23;2.33;;;1.40;;
71965;SDS011;59836;52.132;5.442;2023-02-28T06:22:50;2.97;;;1.50;;
71965;SDS011;59836;52.132;5.442;2023-02-28T06:25:17;4.45;;;1.85;;
71965;SDS011;59836;52.132;5.442;2023-02-28T06:27:43;3.10;;;1.80;;
71965;SDS011;59836;52.132;5.442;2023-02-28T06:30:10;2.78;;;2.05;;
71965;SDS011;59836;52.132;5.442;2023-02-28T06:32:37;2.73;;;1.50;;
71965;SDS011;59836;52.132;5.442;2023-02-28T06:35:04;2.33;;;1.45;;
71965;SDS011;59836;52.132;5.442;2023-02-28T06:37:31;3.97;;;2.00;;
71965;SDS011;59836;52.132;5.442;2023-02-28T06:39:58;5.07;;;1.90;;
71965;SDS011;59836;52.132;5.442;2023-02-28T06:42:25;2.30;;;1.95;;
71965;SDS011;59836;52.132;5.442;2023-02-28T06:44:55;2.63;;;1.73;;
71965;SDS011;59836;52.132;5.442;2023-02-28T06:47:22;3.70;;;2.33;;
71965;SDS011;59836;52.132;5.442;2023-02-28T06:49:48;3.42;;;2.70;;
71965;SDS011;59836;52.132;5.442;2023-02-28T06:52:15;3.10;;;2.30;;
71965;SDS011;59836;52.132;5.442;2023-02-28T06:54:42;4.05;;;2.22;;
71965;SDS011;59836;52.132;5.442;2023-02-28T06:57:08;3.93;;;2.00;;
71965;SDS011;59836;52.132;5.442;2023-02-28T06:59:34;4.65;;;2.08;;
71965;SDS011;59836;52.132;5.442;2023-02-28T07:02:02;2.85;;;1.75;;
71965;SDS011;59836;52.132;5.442;2023-02-28T07:04:28;4.28;;;2.30;;
71965;SDS011;59836;52.132;5.442;2023-02-28T07:06:55;3.25;;;1.95;;
71965;SDS011;59836;52.132;5.442;2023-02-28T07:09:23;3.33;;;1.80;;
71965;SDS011;59836;52.132;5.442;2023-02-28T07:11:49;4.10;;;1.92;;
71965;SDS011;59836;52.132;5.442;2023-02-28T07:14:15;4.32;;;2.60;;
71965;SDS011;59836;52.132;5.442;2023-02-28T07:16:42;3.83;;;2.00;;
71965;SDS011;59836;52.132;5.442;2023-02-28T07:19:10;3.65;;;1.92;;
71965;SDS011;59836;52.132;5.442;2023-02-28T07:21:37;3.27;;;1.57;;
71965;SDS011;59836;52.132;5.442;2023-02-28T07:24:03;3.42;;;2.00;;
71965;SDS011;59836;52.132;5.442;2023-02-28T07:26:30;6.55;;;2.45;;
71965;SDS011;59836;52.132;5.442;2023-02-28T07:28:56;3.33;;;2.00;;
71965;SDS011;59836;52.132;5.442;2023-02-28T07:31:22;3.42;;;1.88;;
71965;SDS011;59836;52.132;5.442;2023-02-28T07:33:49;2.60;;;2.00;;
71965;SDS011;59836;52.132;5.442;2023-02-28T07:36:16;4.00;;;2.45;;
71965;SDS011;59836;52.132;5.442;2023-02-28T07:38:45;3.53;;;2.15;;
71965;SDS011;59836;52.132;5.442;2023-02-28T07:41:14;2.95;;;2.13;;
71965;SDS011;59836;52.132;5.442;2023-02-28T07:43:42;3.08;;;2.20;;
71965;SDS011;59836;52.132;5.442;2023-02-28T07:46:11;3.70;;;2.50;;
71965;SDS011;59836;52.132;5.442;2023-02-28T07:51:10;7.43;;;3.20;;
71965;SDS011;59836;52.132;5.442;2023-02-28T07:53:37;4.03;;;2.75;;
71965;SDS011;59836;52.132;5.442;2023-02-28T07:56:04;3.67;;;2.47;;
71965;SDS011;59836;52.132;5.442;2023-02-28T07:58:30;2.87;;;2.13;;
71965;SDS011;59836;52.132;5.442;2023-02-28T08:00:57;2.95;;;2.25;;
71965;SDS011;59836;52.132;5.442;2023-02-28T08:03:31;3.50;;;2.35;;
71965;SDS011;59836;52.132;5.442;2023-02-28T08:05:57;4.47;;;2.58;;
71965;SDS011;59836;52.132;5.442;2023-02-28T08:08:24;4.57;;;2.85;;
71965;SDS011;59836;52.132;5.442;2023-02-28T08:10:58;3.73;;;2.20;;
71965;SDS011;59836;52.132;5.442;2023-02-28T08:13:26;4.13;;;1.90;;
71965;SDS011;59836;52.132;5.442;2023-02-28T08:15:53;4.63;;;2.83;;
71965;SDS011;59836;52.132;5.442;2023-02-28T08:20:50;3.35;;;2.47;;
71965;SDS011;59836;52.132;5.442;2023-02-28T08:23:17;3.87;;;2.53;;
71965;SDS011;59836;52.132;5.442;2023-02-28T08:25:43;3.80;;;2.35;;
71965;SDS011;59836;52.132;5.442;2023-02-28T08:28:10;3.00;;;2.60;;
71965;SDS011;59836;52.132;5.442;2023-02-28T08:30:37;4.78;;;2.20;;
71965;SDS011;59836;52.132;5.442;2023-02-28T08:33:03;3.30;;;2.60;;
71965;SDS011;59836;52.132;5.442;2023-02-28T08:35:30;2.70;;;1.90;;
71965;SDS011;59836;52.132;5.442;2023-02-28T08:37:56;3.83;;;2.22;;
71965;SDS011;59836;52.132;5.442;2023-02-28T08:40:23;3.83;;;2.17;;
71965;SDS011;59836;52.132;5.442;2023-02-28T08:42:50;3.10;;;2.13;;
71965;SDS011;59836;52.132;5.442;2023-02-28T08:45:16;3.00;;;2.20;;
71965;SDS011;59836;52.132;5.442;2023-02-28T08:47:43;3.13;;;1.50;;
71965;SDS011;59836;52.132;5.442;2023-02-28T08:50:09;3.35;;;1.92;;
71965;SDS011;59836;52.132;5.442;2023-02-28T08:52:36;2.88;;;2.13;;
71965;SDS011;59836;52.132;5.442;2023-02-28T08:55:04;2.65;;;1.75;;
71965;SDS011;59836;52.132;5.442;2023-02-28T08:57:31;2.38;;;1.75;;
71965;SDS011;59836;52.132;5.442;2023-02-28T08:59:58;4.80;;;2.20;;
71965;SDS011;59836;52.132;5.442;2023-02-28T09:02:25;2.22;;;1.42;;
71965;SDS011;59836;52.132;5.442;2023-02-28T09:04:51;3.67;;;1.50;;
71965;SDS011;59836;52.132;5.442;2023-02-28T09:07:18;2.50;;;1.25;;
71965;SDS011;59836;52.132;5.442;2023-02-28T09:09:44;3.47;;;1.42;;
71965;SDS011;59836;52.132;5.442;2023-02-28T09:12:23;2.53;;;1.40;;
71965;SDS011;59836;52.132;5.442;2023-02-28T09:14:51;1.75;;;1.02;;
71965;SDS011;59836;52.132;5.442;2023-02-28T09:17:18;2.15;;;1.25;;
71965;SDS011;59836;52.132;5.442;2023-02-28T09:19:47;6.13;;;1.27;;
71965;SDS011;59836;52.132;5.442;2023-02-28T09:22:14;3.88;;;1.10;;
71965;SDS011;59836;52.132;5.442;2023-02-28T09:24:40;1.70;;;0.80;;
71965;SDS011;59836;52.132;5.442;2023-02-28T09:27:07;3.03;;;1.10;;
71965;SDS011;59836;52.132;5.442;2023-02-28T09:29:34;1.77;;;1.10;;
71965;SDS011;59836;52.132;5.442;2023-02-28T09:32:00;2.08;;;0.80;;
71965;SDS011;59836;52.132;5.442;2023-02-28T09:34:30;1.10;;;0.70;;
71965;SDS011;59836;52.132;5.442;2023-02-28T09:36:57;2.80;;;0.90;;
71965;SDS011;59836;52.132;5.442;2023-02-28T09:39:24;1.30;;;0.85;;
71965;SDS011;59836;52.132;5.442;2023-02-28T09:41:52;1.70;;;0.90;;
71965;SDS011;59836;52.132;5.442;2023-02-28T09:44:29;1.85;;;0.80;;
71965;SDS011;59836;52.132;5.442;2023-02-28T09:47:01;2.00;;;0.80;;
71965;SDS011;59836;52.132;5.442;2023-02-28T09:49:49;1.80;;;0.80;;
71965;SDS011;59836;52.132;5.442;2023-02-28T09:52:17;3.20;;;0.90;;
71965;SDS011;59836;52.132;5.442;2023-02-28T09:54:46;2.10;;;1.00;;
71965;SDS011;59836;52.132;5.442;2023-02-28T09:57:15;2.35;;;1.10;;
71965;SDS011;59836;52.132;5.442;2023-02-28T10:10:49;2.13;;;0.80;;
71965;SDS011;59836;52.132;5.442;2023-02-28T10:16:35;1.33;;;0.70;;
71965;SDS011;59836;52.132;5.442;2023-02-28T10:19:11;2.60;;;0.90;;
71965;SDS011;59836;52.132;5.442;2023-02-28T10:21:55;2.13;;;0.93;;
71965;SDS011;59836;52.132;5.442;2023-02-28T10:24:32;1.30;;;0.70;;
71965;SDS011;59836;52.132;5.442;2023-02-28T10:27:06;2.47;;;0.80;;
71965;SDS011;59836;52.132;5.442;2023-02-28T10:29:42;1.90;;;1.07;;
71965;SDS011;59836;52.132;5.442;2023-02-28T10:32:11;1.75;;;0.80;;
71965;SDS011;59836;52.132;5.442;2023-02-28T10:34:44;2.17;;;1.20;;
71965;SDS011;59836;52.132;5.442;2023-02-28T10:37:17;1.80;;;0.80;;
71965;SDS011;59836;52.132;5.442;2023-02-28T10:39:46;1.77;;;1.20;;
71965;SDS011;59836;52.132;5.442;2023-02-28T10:42:23;1.53;;;0.83;;
71965;SDS011;59836;52.132;5.442;2023-02-28T10:45:12;2.08;;;0.80;;
71965;SDS011;59836;52.132;5.442;2023-02-28T10:47:54;1.63;;;0.93;;
71965;SDS011;59836;52.132;5.442;2023-02-28T10:50:50;1.92;;;1.00;;
71965;SDS011;59836;52.132;5.442;2023-02-28T10:56:03;1.80;;;0.80;;
71965;SDS011;59836;52.132;5.442;2023-02-28T10:58:50;2.45;;;1.15;;
71965;SDS011;59836;52.132;5.442;2023-02-28T11:01:35;1.60;;;0.90;;
71965;SDS011;59836;52.132;5.442;2023-02-28T11:06:59;2.38;;;1.00;;
71965;SDS011;59836;52.132;5.442;2023-02-28T11:09:35;1.60;;;0.73;;
71965;SDS011;59836;52.132;5.442;2023-02-28T11:12:08;1.65;;;0.90;;
71965;SDS011;59836;52.132;5.442;2023-02-28T11:14:50;2.55;;;1.23;;
71965;SDS011;59836;52.132;5.442;2023-02-28T11:17:27;1.52;;;1.00;;
71965;SDS011;59836;52.132;5.442;2023-02-28T11:19:57;1.73;;;1.10;;
71965;SDS011;59836;52.132;5.442;2023-02-28T11:22:29;1.53;;;0.90;;
71965;SDS011;59836;52.132;5.442;2023-02-28T11:25:03;3.65;;;1.20;;
71965;SDS011;59836;52.132;5.442;2023-02-28T11:27:45;4.50;;;1.10;;
71965;SDS011;59836;52.132;5.442;2023-02-28T11:30:24;1.40;;;0.90;;
71965;SDS011;59836;52.132;5.442;2023-02-28T11:32:56;2.00;;;0.95;;
71965;SDS011;59836;52.132;5.442;2023-02-28T11:35:31;2.40;;;1.03;;
71965;SDS011;59836;52.132;5.442;2023-02-28T11:38:04;2.53;;;1.00;;
71965;SDS011;59836;52.132;5.442;2023-02-28T11:43:36;2.33;;;1.25;;
71965;SDS011;59836;52.132;5.442;2023-02-28T11:46:23;1.30;;;0.90;;
71965;SDS011;59836;52.132;5.442;2023-02-28T11:48:58;1.17;;;0.73;;
71965;SDS011;59836;52.132;5.442;2023-02-28T11:51:48;2.45;;;1.40;;
71965;SDS011;59836;52.132;5.442;2023-02-28T11:56:58;1.83;;;0.80;;
71965;SDS011;59836;52.132;5.442;2023-02-28T11:59:46;2.53;;;1.08;;
71965;SDS011;59836;52.132;5.442;2023-02-28T12:02:37;1.40;;;1.00;;
71965;SDS011;59836;52.132;5.442;2023-02-28T12:11:10;2.72;;;0.90;;
71965;SDS011;59836;52.132;5.442;2023-02-28T12:13:54;2.47;;;1.23;;
71965;SDS011;59836;52.132;5.442;2023-02-28T12:16:27;3.20;;;1.20;;
71965;SDS011;59836;52.132;5.442;2023-02-28T12:25:43;2.97;;;1.35;;
71965;SDS011;59836;52.132;5.442;2023-02-28T12:28:20;1.65;;;1.20;;
71965;SDS011;59836;52.132;5.442;2023-02-28T12:30:57;2.53;;;1.03;;
71965;SDS011;59836;52.132;5.442;2023-02-28T12:33:30;2.35;;;1.00;;
71965;SDS011;59836;52.132;5.442;2023-02-28T12:36:01;2.05;;;1.02;;
71965;SDS011;59836;52.132;5.442;2023-02-28T12:38:43;1.92;;;0.90;;
71965;SDS011;59836;52.132;5.442;2023-02-28T12:41:14;1.52;;;1.38;;
71965;SDS011;59836;52.132;5.442;2023-02-28T12:43:46;1.40;;;0.90;;
71965;SDS011;59836;52.132;5.442;2023-02-28T12:46:18;2.05;;;1.30;;
71965;SDS011;59836;52.132;5.442;2023-02-28T12:48:50;3.47;;;1.25;;
71965;SDS011;59836;52.132;5.442;2023-02-28T12:51:22;1.90;;;1.35;;
71965;SDS011;59836;52.132;5.442;2023-02-28T12:56:45;1.60;;;0.80;;
71965;SDS011;59836;52.132;5.442;2023-02-28T12:59:14;2.72;;;1.23;;
71965;SDS011;59836;52.132;5.442;2023-02-28T13:05:12;1.75;;;1.00;;
71965;SDS011;59836;52.132;5.442;2023-02-28T13:10:37;2.13;;;1.30;;
71965;SDS011;59836;52.132;5.442;2023-02-28T13:13:21;1.73;;;0.98;;
71965;SDS011;59836;52.132;5.442;2023-02-28T13:15:57;2.05;;;1.40;;
71965;SDS011;59836;52.132;5.442;2023-02-28T13:18:31;1.75;;;0.90;;
71965;SDS011;59836;52.132;5.442;2023-02-28T13:20:58;1.50;;;1.17;;
71965;SDS011;59836;52.132;5.442;2023-02-28T13:23:41;2.53;;;1.13;;
71965;SDS011;59836;52.132;5.442;2023-02-28T13:28:58;1.67;;;1.33;;
71965;SDS011;59836;52.132;5.442;2023-02-28T13:31:26;2.70;;;1.48;;
71965;SDS011;59836;52.132;5.442;2023-02-28T13:44:09;2.22;;;1.45;;
71965;SDS011;59836;52.132;5.442;2023-02-28T13:46:38;1.98;;;1.50;;
71965;SDS011;59836;52.132;5.442;2023-02-28T13:51:52;2.92;;;1.33;;
71965;SDS011;59836;52.132;5.442;2023-02-28T13:57:39;1.58;;;1.00;;
71965;SDS011;59836;52.132;5.442;2023-02-28T14:00:23;2.38;;;1.60;;
71965;SDS011;59836;52.132;5.442;2023-02-28T14:11:39;2.20;;;1.48;;
71965;SDS011;59836;52.132;5.442;2023-02-28T14:17:07;1.73;;;1.03;;
71965;SDS011;59836;52.132;5.442;2023-02-28T14:19:39;1.80;;;1.08;;
71965;SDS011;59836;52.132;5.442;2023-02-28T14:22:14;2.03;;;1.40;;
71965;SDS011;59836;52.132;5.442;2023-02-28T14:30:56;1.90;;;1.43;;
71965;SDS011;59836;52.132;5.442;2023-02-28T14:33:35;1.92;;;1.15;;
71965;SDS011;59836;52.132;5.442;2023-02-28T14:36:21;3.75;;;1.35;;
71965;SDS011;59836;52.132;5.442;2023-02-28T14:38:53;2.28;;;1.33;;
71965;SDS011;59836;52.132;5.442;2023-02-28T14:41:29;3.30;;;1.30;;
71965;SDS011;59836;52.132;5.442;2023-02-28T14:44:01;2.57;;;1.40;;
71965;SDS011;59836;52.132;5.442;2023-02-28T14:46:35;2.90;;;1.48;;
71965;SDS011;59836;52.132;5.442;2023-02-28T14:49:05;1.95;;;1.30;;
71965;SDS011;59836;52.132;5.442;2023-02-28T14:51:35;2.92;;;1.10;;
71965;SDS011;59836;52.132;5.442;2023-02-28T14:54:02;2.38;;;1.40;;
71965;SDS011;59836;52.132;5.442;2023-02-28T14:56:33;1.37;;;1.20;;
71965;SDS011;59836;52.132;5.442;2023-02-28T14:59:03;2.00;;;1.58;;
71965;SDS011;59836;52.132;5.442;2023-02-28T15:01:30;2.50;;;1.35;;
71965;SDS011;59836;52.132;5.442;2023-02-28T15:04:04;2.88;;;1.13;;
71965;SDS011;59836;52.132;5.442;2023-02-28T15:06:32;2.05;;;1.33;;
71965;SDS011;59836;52.132;5.442;2023-02-28T15:09:07;1.73;;;1.47;;
71965;SDS011;59836;52.132;5.442;2023-02-28T15:11:40;2.53;;;1.42;;
71965;SDS011;59836;52.132;5.442;2023-02-28T15:14:12;3.13;;;1.85;;
71965;SDS011;59836;52.132;5.442;2023-02-28T15:16:42;2.45;;;1.20;;
71965;SDS011;59836;52.132;5.442;2023-02-28T15:19:13;2.10;;;1.52;;
71965;SDS011;59836;52.132;5.442;2023-02-28T15:21:54;1.90;;;1.20;;
71965;SDS011;59836;52.132;5.442;2023-02-28T15:27:06;2.25;;;1.25;;
71965;SDS011;59836;52.132;5.442;2023-02-28T15:29:43;2.80;;;1.15;;
71965;SDS011;59836;52.132;5.442;2023-02-28T15:32:21;1.60;;;1.40;;
71965;SDS011;59836;52.132;5.442;2023-02-28T15:34:57;2.47;;;1.20;;
71965;SDS011;59836;52.132;5.442;2023-02-28T15:40:09;1.95;;;1.30;;
71965;SDS011;59836;52.132;5.442;2023-02-28T15:42:37;2.05;;;1.25;;
71965;SDS011;59836;52.132;5.442;2023-02-28T15:45:04;2.65;;;1.42;;
71965;SDS011;59836;52.132;5.442;2023-02-28T15:47:30;4.23;;;0.90;;
71965;SDS011;59836;52.132;5.442;2023-02-28T15:52:31;2.13;;;1.10;;
71965;SDS011;59836;52.132;5.442;2023-02-28T15:55:26;2.40;;;1.30;;
71965;SDS011;59836;52.132;5.442;2023-02-28T15:57:54;7.32;;;2.75;;
71965;SDS011;59836;52.132;5.442;2023-02-28T16:00:25;6.03;;;2.67;;
71965;SDS011;59836;52.132;5.442;2023-02-28T16:02:53;2.67;;;1.80;;
71965;SDS011;59836;52.132;5.442;2023-02-28T16:05:27;2.50;;;1.40;;
71965;SDS011;59836;52.132;5.442;2023-02-28T16:07:58;2.15;;;1.20;;
71965;SDS011;59836;52.132;5.442;2023-02-28T16:10:27;1.55;;;1.08;;
71965;SDS011;59836;52.132;5.442;2023-02-28T16:12:55;2.73;;;1.07;;
71965;SDS011;59836;52.132;5.442;2023-02-28T16:15:26;1.83;;;1.10;;
71965;SDS011;59836;52.132;5.442;2023-02-28T16:17:55;1.52;;;1.30;;
71965;SDS011;59836;52.132;5.442;2023-02-28T16:20:27;1.70;;;1.02;;
71965;SDS011;59836;52.132;5.442;2023-02-28T16:22:55;1.80;;;1.30;;
71965;SDS011;59836;52.132;5.442;2023-02-28T16:25:29;2.03;;;1.07;;
71965;SDS011;59836;52.132;5.442;2023-02-28T16:28:03;2.80;;;1.60;;
71965;SDS011;59836;52.132;5.442;2023-02-28T16:30:34;3.97;;;1.58;;
71965;SDS011;59836;52.132;5.442;2023-02-28T16:33:01;2.53;;;1.42;;
71965;SDS011;59836;52.132;5.442;2023-02-28T16:35:27;2.00;;;1.40;;
71965;SDS011;59836;52.132;5.442;2023-02-28T16:37:53;2.07;;;1.20;;
71965;SDS011;59836;52.132;5.442;2023-02-28T16:40:21;2.42;;;1.60;;
71965;SDS011;59836;52.132;5.442;2023-02-28T16:42:52;3.03;;;1.90;;
71965;SDS011;59836;52.132;5.442;2023-02-28T16:45:22;2.80;;;1.40;;
71965;SDS011;59836;52.132;5.442;2023-02-28T16:47:52;2.42;;;2.00;;
71965;SDS011;59836;52.132;5.442;2023-02-28T16:50:21;3.00;;;1.20;;
71965;SDS011;59836;52.132;5.442;2023-02-28T16:52:51;3.03;;;1.60;;
71965;SDS011;59836;52.132;5.442;2023-02-28T16:55:21;2.38;;;1.60;;
71965;SDS011;59836;52.132;5.442;2023-02-28T16:57:53;2.20;;;1.48;;
71965;SDS011;59836;52.132;5.442;2023-02-28T17:00:21;2.72;;;1.70;;
71965;SDS011;59836;52.132;5.442;2023-02-28T17:02:49;1.97;;;1.30;;
71965;SDS011;59836;52.132;5.442;2023-02-28T17:05:15;3.28;;;1.55;;
71965;SDS011;59836;52.132;5.442;2023-02-28T17:07:43;2.40;;;1.70;;
71965;SDS011;59836;52.132;5.442;2023-02-28T17:12:50;3.70;;;1.77;;
71965;SDS011;59836;52.132;5.442;2023-02-28T17:15:20;3.13;;;2.17;;